x

9439040 - Astoria, Or (asto3) Weather Station

4:12 - Sun 19th Apr 2015 All times are PDT. -7 hours from GMT.

  • Wind
    5mph, 10mph gusts
  • Sea Temp 54°f
  • Aire Temp 58°f
  • Sea Pressure 1017.6mb
  • 9439040 - Astoria, Or
  • 9439040 - Astoria, Or

More Historic Weather Station data

Upgrade to MSW Pro to gain access to the past 30 days of data for over 8000 Wavebouys and Weather Stations around the globe.

Join Pro

Comparision Forecast

View Surf forecast
   
dom 04/19 4:12 5 10 mph 1017.6mb 54f 58f
4:06 10 16 mph 1017.8mb 54f 58f
4:00 11 16 mph 1017.8mb 54f 58f
3:54 15 20 mph 1017.9mb 54f 58f
3:48 14 17 mph 1018mb 54f 58f
3:42 14 18 mph 1018.1mb 54f 58f
3:36 8 13 mph 1018.2mb 54f 60f
3:30 9 14 mph 1018.2mb 54f 60f
3:24 8 14 mph 1018.3mb 54f 60f
3:18 3 10 mph 1018.3mb 54f 62f
3:12 3 10 mph 1018.4mb 54f 61f
3:06 3 7 mph 1018.4mb 55f 61f
3:00 6 11 mph 1018.5mb 55f 61f
2:54 5 10 mph 1018.6mb 55f 61f
2:48 6 10 mph 1018.7mb 55f 60f
2:42 7 10 mph 1018.8mb 55f 60f
2:36 8 13 mph 1018.9mb 55f 59f
2:30 8 14 mph 1018.9mb 55f 59f
2:24 11 14 mph 1018.9mb 55f 59f
2:18 9 14 mph 1019mb - -
2:12 10 15 mph 1019.1mb 55f 59f
2:06 8 11 mph 1019.1mb 55f -
2:00 10 13 mph 1019.1mb 55f -
1:54 9 13 mph 1019.2mb 55f -
1:48 9 13 mph 1019.2mb 61f 67f
1:42 11 14 mph 1019.3mb 61f 66f
1:12 7 9 mph 1019.6mb 55f 60f
1:06 7 9 mph 1019.6mb 55f 60f
1:00 6 8 mph 1019.7mb 55f 59f
12:54 6 7 mph 1019.8mb 55f 59f
12:48 5 7 mph 1019.9mb 55f 59f
12:42 5 8 mph 1019.9mb 55f 59f
12:36 6 8 mph 1020mb 55f 58f
12:30 5 8 mph 1020.1mb 55f 58f
12:24 1 5 mph 1020.2mb 55f 59f
12:18 3 6 mph 1020.2mb 55f 58f
12:12 3 6 mph 1020.3mb 55f 58f
12:06 2 5 mph 1020.4mb 55f 58f
12:00 2 5 mph 1020.4mb 55f 58f
11:54  -  2 mph 1020.4mb 55f 57f
11:48 2 3 mph 1020.5mb 55f 56f
11:42 2
mph
1020.6mb 55f 56f
11:36  -  1 mph 1020.6mb 55f 56f
11:30 1 2 mph 1020.7mb 55f 56f
11:24 1 2 mph 1020.7mb 55f 56f
11:18  -  2 mph 1020.8mb 54f 55f
11:12 1 2 mph 1020.8mb 54f 53f
11:06 2
mph
1020.9mb 54f 53f
11:00 1 2 mph 1020.9mb 54f 54f
10:54 1 2 mph 1021mb 54f 53f
10:48 2
mph
1021mb 54f 53f
10:42 2 3 mph 1021mb 54f 53f
10:36 2 3 mph 1021mb 54f 53f
10:30 1 3 mph 1021mb 54f 53f
10:24 2 5 mph 1021mb 54f 53f
10:18 3 5 mph 1021mb 54f 53f
10:12 2 3 mph 1021mb 54f 54f
10:06  -  2 mph 1021mb 54f 55f
10:00  -  2 mph 1021.1mb 54f 54f
9:54 2 3 mph 1021.1mb 54f 53f
9:48 1 2 mph 1021.2mb 54f 53f
9:42 1 3 mph 1021.2mb 54f 53f
9:36 2 5 mph 1021.3mb 54f 52f
9:30 5 6 mph 1021.3mb 53f 51f
9:24 3 5 mph 1021.4mb 53f 50f
9:18 3 5 mph 1021.4mb 53f 49f
9:12 2 3 mph 1021.5mb 53f 49f
9:06 2 3 mph 1021.6mb 53f 49f
9:00 2 3 mph 1021.6mb 53f 48f
8:54 2 5 mph 1021.7mb 53f 48f
8:48 5 6 mph 1021.8mb 53f 47f
8:42 6 7 mph 1021.8mb 53f 47f
8:36 5 6 mph 1021.9mb 53f 47f
8:30 2 6 mph 1021.9mb 53f 48f
8:24 3 7 mph 1021.9mb 53f 47f
8:18 5 6 mph 1021.8mb 53f 47f
8:12 3 6 mph 1021.8mb 53f 47f
8:06 3 6 mph 1021.9mb 53f 47f
8:00 3 8 mph 1021.9mb 53f 47f
7:54  -  2 mph 1021.9mb 53f 47f
7:36 8 11 mph 1021.9mb 53f 46f
7:30 9 11 mph 1021.9mb 53f 46f
7:18 8 10 mph 1021.9mb 53f 46f
7:12 9 10 mph 1021.9mb 53f 46f
7:06 10 11 mph 1021.9mb 53f 46f
7:00 10 11 mph 1021.9mb 53f 47f
6:54 10 11 mph 1021.9mb 53f 47f
6:48 9 11 mph 1021.8mb 53f 47f
6:42 8 10 mph 1021.9mb 53f 47f
6:36 3 5 mph 1022mb 53f 47f
6:30 1 2 mph 1022mb 53f 47f
6:24 1 2 mph 1022mb 53f 47f
6:18 2 3 mph 1022mb 53f 47f
6:12 1 3 mph 1022mb 53f 47f
6:06  -  1 mph 1022mb 53f 47f
6:00  -  3 mph 1021.9mb 53f 47f
5:54 2 3 mph 1021.9mb 53f 47f
5:48 2 3 mph 1022mb 53f 47f
5:42 1 5 mph 1022mb 53f 47f
5:36 5 6 mph 1021.9mb 53f 47f
5:30 2 6 mph 1022mb 54f 47f
5:24 6
mph
1022mb 54f 47f
5:18 5 6 mph 1022mb 54f 47f
5:12 6 7 mph 1022.1mb 54f 47f
5:06 6 8 mph 1022.2mb 54f 48f
5:00 7 9 mph 1022.2mb 54f 47f
4:54 8 10 mph 1022.2mb 54f 48f
4:48 8 9 mph 1022.2mb 54f 48f
4:42 6 7 mph 1022.3mb 53f 48f
4:36 5 7 mph 1022.4mb 54f 48f
4:30 6 8 mph 1022.4mb 54f 48f
4:24 6 8 mph 1022.4mb 54f 48f
4:18 6 7 mph 1022.5mb 54f 47f
4:12 2 3 mph 1022.6mb 54f 48f
4:06 2 6 mph 1022.6mb 54f 48f
4:00 5 6 mph 1022.5mb 54f 48f
3:54 5 7 mph 1022.5mb 54f 48f
3:48 3
mph
1022.5mb 54f 47f
3:42  -  3 mph 1022.6mb 54f 48f
3:36 2 3 mph 1022.5mb 54f 47f
3:30 1 2 mph 1022.6mb 54f 48f
3:24 2 3 mph 1022.7mb 54f 49f
3:18 3 5 mph 1022.7mb 54f 49f
3:12 3
mph
1022.7mb 54f 49f
3:06 3 5 mph 1022.7mb 54f 49f
3:00 3 5 mph 1022.7mb 54f 49f
2:54 3 5 mph 1022.8mb 53f 50f
2:48 3 5 mph 1022.8mb 53f 50f
2:42 2 3 mph 1022.7mb 53f 50f
2:36 3
mph
1022.7mb 53f 50f
2:30 1 2 mph 1022.8mb 53f 50f
2:24  -  2 mph 1022.9mb 53f 50f
2:18 1 2 mph 1022.8mb 53f 50f
2:12 1 2 mph 1022.9mb 53f 50f
2:06 1 2 mph 1022.9mb 53f 49f
2:00  -  1 mph 1023mb 53f 49f
1:54  -  5 mph 1023mb 53f 49f
1:48 3 5 mph 1023.1mb 54f 49f
1:42 1 2 mph 1023mb 54f 49f
1:36 1 2 mph 1023mb 54f 50f
1:30 2 5 mph 1023mb 54f 49f
1:24 2
mph
1023mb 54f 49f
1:18 1 3 mph 1023.1mb 54f 50f
1:12 2 3 mph 1023.2mb 54f 50f
1:06  -  1 mph 1023.2mb 54f 50f
1:00 1 3 mph 1023.2mb 54f 49f
12:54 2 3 mph 1023.3mb 54f 49f
12:48  -  1 mph 1023.3mb 54f 51f
12:42 1 2 mph 1023.3mb 54f 51f
12:36 1 2 mph 1023.2mb 54f 51f
12:30 3 6 mph 1023.2mb 54f 51f
12:24 5 7 mph 1023.2mb 54f 51f
12:18 5 6 mph 1023.2mb 54f 51f
12:12 3 5 mph 1023.2mb 54f 50f
12:06 2 5 mph 1023.3mb 54f 51f
12:00 3 5 mph 1023.3mb 54f 51f
sáb 04/18 11:54 5
mph
1023.3mb 54f 51f
11:48  -  mph 1023.3mb - -
11:42 1
mph
1023.3mb 54f -
11:30  -  1 mph 1023.4mb 54f 51f
11:18 2
mph
1023.4mb 54f 52f
11:12  -  mph - - 52f
10:54  -  1 mph 1023.5mb 54f 53f
10:48  -  1 mph 1023.5mb 54f 53f
10:42 1
mph
1023.5mb 54f 53f
10:36 1 3 mph 1023.5mb 54f 53f
10:30 2 3 mph 1023.5mb 54f 53f
10:24 2 5 mph 1023.5mb 54f 53f
10:18 5 6 mph 1023.6mb 54f 54f
10:12 3 6 mph 1023.6mb 54f 54f
10:06 2 6 mph 1023.7mb 54f 55f
10:00 5 7 mph 1023.7mb 54f 55f
9:54 6 7 mph 1023.8mb 54f 55f
9:48 6 7 mph 1023.8mb 54f 55f
9:42 2 6 mph 1023.8mb 54f 55f
9:36 3 5 mph 1023.8mb 54f 55f
9:30 2 5 mph 1023.9mb 54f 55f
9:24 3 9 mph 1023.9mb 54f 55f
9:18 7 11 mph - - -
9:12 9 14 mph 1023.8mb 54f 56f
9:06 10 14 mph 1023.8mb 54f 56f
9:00 7 9 mph 1023.8mb 54f 56f
8:54 7 9 mph 1023.8mb 54f 56f
8:48 6 9 mph 1023.8mb 54f 57f
8:42 6 11 mph 1023.7mb 54f 57f
8:36 8 10 mph 1023.6mb 54f 58f
8:30 7 10 mph 1023.5mb 54f 59f
8:24 5 7 mph 1023.5mb 54f 59f
8:18 6 8 mph 1023.6mb 54f 60f
8:12 6 8 mph 1023.6mb 54f 60f
8:06 3 7 mph 1023.6mb 54f 60f
8:00 1 8 mph 1023.6mb 54f 60f
7:54 6 8 mph 1023.5mb 54f 59f
7:48 6 11 mph 1023.5mb 54f 60f
7:42 7 9 mph 1023.5mb 54f 60f
7:36 6 11 mph 1023.4mb 54f 60f
7:30 7 10 mph 1023.4mb 54f 60f
7:24 8 11 mph 1023.4mb 54f 59f
7:18 10 14 mph 1023.4mb 54f 60f
7:12 11 15 mph 1023.5mb 54f 61f
7:06 14 16 mph 1023.6mb 54f 60f
7:00 13 18 mph 1023.6mb 54f 60f
6:48 14 21 mph 1023.8mb 54f 61f
6:42 11 18 mph 1023.7mb 54f 61f
6:36 8 11 mph 1023.7mb 54f 61f
6:30 6 15 mph 1023.8mb 54f 62f
6:24 3 9 mph 1023.8mb 54f 62f
6:18 2 7 mph 1023.8mb 54f -
6:12 5 11 mph 1023.9mb 54f 61f
6:06 5 9 mph 1023.9mb 54f 60f
6:00 3 6 mph 1023.9mb 54f 60f
5:54 5 8 mph 1024mb 54f 60f
5:48 8 15 mph 1024mb 54f 60f
5:42 14 18 mph 1024mb 54f 60f
5:36 7 15 mph 1024.1mb 54f 60f
5:30 14 16 mph 1024.1mb 54f 60f
5:24 14 18 mph 1024.2mb 54f 60f
5:18 14 17 mph 1024.2mb 53f 60f
5:12 11 15 mph 1024.2mb 53f 59f
5:06 13 16 mph 1024.2mb 53f 59f
5:00 14 16 mph 1024.2mb 53f 59f
4:54 15 20 mph 1024.2mb 53f 59f
4:48 17 21 mph 1024.2mb 53f 59f
4:42 20 22 mph 1024.3mb 53f 60f
4:36 18 23 mph 1024.3mb 53f 60f
4:30 16 18 mph 1024.4mb 53f 60f
4:24 17 21 mph 1024.4mb 53f 60f
4:18 15 18 mph 1024.4mb 53f 60f
4:12 14 17 mph 1024.6mb 53f 61f
4:06 16 22 mph 1024.6mb 53f 61f
4:00 15 20 mph 1024.7mb 54f 61f
3:54 17 20 mph 1024.7mb 54f 61f
3:48 16 20 mph 1024.8mb 54f 61f
3:42 15 17 mph 1024.9mb 54f 61f
3:36 15 17 mph 1025mb 54f 61f
3:30 8 13 mph 1025.1mb 54f 61f
3:24 3 7 mph 1025.2mb 54f 64f
3:18 2 6 mph 1025.2mb 54f 62f
3:12 5 8 mph 1025.2mb 54f 61f
3:06 5 8 mph 1025.3mb 54f 60f
3:00 6 8 mph 1025.3mb 54f 60f
2:54 7 9 mph 1025.3mb 54f 60f
2:48 8 11 mph 1025.4mb 54f 59f
2:42 9 10 mph 1025.4mb 54f 59f
2:36 9 13 mph 1025.5mb 54f 58f
2:30 6 10 mph 1025.6mb 54f 58f
2:24 8 10 mph 1025.6mb 54f 57f
2:18 8 13 mph 1025.7mb 54f 58f
2:12 9 11 mph 1025.8mb 54f 58f
2:06 8 14 mph 1025.8mb 54f 57f
2:00 13 15 mph 1025.8mb 54f 57f
1:54 10 14 mph 1025.9mb 54f 57f
1:48 10 13 mph 1026mb 54f 56f
1:42 9 13 mph 1026.1mb 54f 56f
1:36 9 11 mph 1026.2mb 54f 56f
1:30 9 11 mph 1026.3mb 54f 56f
1:24 7 11 mph 1026.3mb 54f 56f
1:18 8 11 mph 1026.3mb 54f 56f
1:12 7 10 mph 1026.4mb 54f 56f
1:06 7 9 mph 1026.5mb 54f 56f
1:00 5 7 mph 1026.5mb 54f 56f
12:54 5 8 mph 1026.6mb 54f 56f
12:48 6 9 mph 1026.6mb 54f 56f
12:42 6 8 mph 1026.6mb 54f 55f
12:36 6 8 mph 1026.6mb 54f 55f
12:30 5 9 mph 1026.6mb 54f 55f
12:24 7 9 mph 1026.7mb 54f 54f
12:18 6 8 mph 1026.9mb 54f 54f
12:12 3 7 mph 1027mb 54f 54f
12:00 1 5 mph 1027.2mb 54f 53f
11:54 1 3 mph 1027.2mb 54f 51f
11:48 1 2 mph 1027.3mb 54f 49f
11:42 2
mph
1027.4mb 54f 49f
11:36 2 5 mph 1027.4mb 54f 48f
11:30 2 3 mph 1027.5mb 54f 48f
11:24 1 2 mph 1027.5mb 54f 48f
11:18 1 2 mph 1027.6mb 54f 48f
11:12 1 3 mph 1027.6mb 54f 47f
11:06 2 3 mph 1027.5mb 54f 47f
11:00 2 3 mph 1027.6mb 54f 47f
10:54 2
mph
1027.6mb 54f 47f
10:48 2 3 mph 1027.7mb 54f 47f
10:42 3
mph
1027.7mb 54f 47f
10:36 2 3 mph 1027.7mb 54f 47f
10:30 2 3 mph 1027.8mb 54f 46f
10:24 3 5 mph 1027.9mb 54f 46f
10:18 2 3 mph 1027.8mb 54f 46f
10:12 2 3 mph 1027.9mb 54f 46f
10:06 2 3 mph 1027.8mb 54f 46f
10:00 2 3 mph 1027.8mb 53f 46f
9:54 3 5 mph 1027.9mb 53f 46f
9:48 3 5 mph 1027.9mb 53f 46f
9:42 3 5 mph 1027.9mb 53f 46f
9:36 2 3 mph 1027.9mb 53f 46f
9:30 1 2 mph 1027.9mb 53f 46f
9:24 1 3 mph 1027.9mb 53f 46f
9:18  -  2 mph 1027.9mb 53f 46f
9:12 1 2 mph 1027.9mb 53f 46f
9:06  -  2 mph 1027.8mb 53f 47f
9:00  -  2 mph 1027.8mb 53f 46f
8:54  -  2 mph 1027.8mb 53f 46f
8:48 2 3 mph 1027.8mb 53f 46f
8:42 1 5 mph 1027.8mb 53f 46f
8:36 3 5 mph 1027.9mb 53f 46f
8:30 2 3 mph 1027.8mb 53f 46f
8:24 2 3 mph 1027.7mb 53f 46f
8:18 2 3 mph 1027.7mb 53f 46f
8:12 2 3 mph 1027.7mb 53f 46f
8:06 3 5 mph 1027.7mb 53f 46f
8:00  -  3 mph 1027.7mb 53f 46f
7:54 3 6 mph 1027.7mb 53f 46f
7:48 2 5 mph 1027.7mb 53f 47f
7:42 2 3 mph 1027.7mb 53f 46f
7:36  -  3 mph 1027.7mb 53f 47f
7:30 2
mph
1027.6mb 53f 46f
7:24  -  1 mph 1027.7mb 53f 46f
7:18  -  2 mph 1027.7mb 53f 46f
7:12 2 3 mph 1027.7mb 53f 46f
7:06 1 2 mph 1027.5mb 53f 46f
7:00 1 2 mph 1027.5mb 53f 46f
6:54  -  1 mph 1027.6mb 53f 46f
6:48  -  1 mph 1027.5mb 53f 46f
6:42 1 2 mph 1027.5mb 53f 46f
6:36 1 2 mph 1027.4mb 53f 46f
6:30 2
mph
1027.4mb 53f 46f
6:24 1
mph
1027.4mb 53f 46f
6:18  -  1 mph 1027.3mb 53f 46f
6:12  -  1 mph 1027.3mb 53f 46f
6:06  -  1 mph 1027.2mb 53f 46f
6:00  -  mph 1027.2mb 53f 46f
5:54  -  1 mph 1027.1mb 53f 46f
5:48  -  1 mph 1027.1mb 53f 46f
5:42  -  1 mph 1027.1mb 53f 46f
5:36  -  1 mph 1027.1mb 53f 47f
5:30  -  1 mph 1027mb 53f 47f
5:24  -  1 mph 1027mb 53f 46f
5:18 1 3 mph 1027mb 53f 47f
5:12 3
mph
1027.1mb 53f 46f
5:06 3 5 mph 1027.1mb 53f 46f
5:00 3 5 mph 1027.1mb 53f 46f
4:54 3 6 mph 1027.1mb 53f 46f
4:48 5 6 mph 1027.1mb 53f 46f
4:42 2 5 mph 1027.1mb 53f 47f
4:36 3
mph
1027.1mb 53f 47f
4:30 2
mph
1027.1mb 53f 47f
4:24 1 2 mph 1027.2mb 53f 47f
4:18 1 3 mph 1027.2mb 53f 47f
4:12 3 5 mph 1027.2mb 53f 48f
4:06 2 3 mph 1027.2mb 53f 47f
4:00 2 3 mph 1027.1mb 53f 47f
3:54 1 2 mph 1027.2mb 53f 48f
3:48 1 3 mph 1027.1mb 53f 48f
3:42 1 5 mph 1027.1mb 53f 48f
3:36 1 3 mph 1027.1mb 53f 48f
3:30 2 7 mph 1027mb 53f 48f
3:24 5 7 mph 1027mb 53f 48f
3:18 6 7 mph 1026.9mb 53f 48f
3:12 5 6 mph 1026.9mb 53f 48f
3:06 3 7 mph 1026.9mb 53f 48f
3:00 3 6 mph 1026.9mb 53f 48f
2:54 5 6 mph 1026.9mb 53f 48f
2:48 3 6 mph 1027mb 53f 48f
2:42 3 6 mph 1026.9mb 53f 48f
2:36 3 6 mph 1027mb 53f 48f
2:30 6
mph
1027.1mb 53f 48f
2:24 5 7 mph 1027.2mb 53f 48f
2:18 3
mph
1027.1mb 53f 48f
2:12 2 5 mph 1027.2mb 53f 48f
2:06 2 3 mph 1027.3mb 53f 48f
2:00 3 5 mph 1027.3mb 53f 49f
1:54 3 6 mph 1027.3mb 53f 49f
1:48 5 6 mph - - -
1:42 2 6 mph 1027.6mb 53f 48f
1:36 5 6 mph 1027.5mb 53f 48f
1:30 2 6 mph 1027.5mb 53f 48f
1:24 5 7 mph 1027.4mb 53f 49f
1:18 2 5 mph 1027.5mb 53f 48f
1:12 3 6 mph 1027.5mb 53f 48f
1:06 3 5 mph 1027.5mb 54f 48f
1:00 3 6 mph 1027.5mb 54f 48f
12:54 5 7 mph 1027.5mb 54f 48f
12:48 6 8 mph 1027.5mb 54f 49f
12:42 3 8 mph 1027.5mb 54f 48f
12:36 6 7 mph 1027.6mb 54f 48f
12:30 5 6 mph 1027.6mb 54f 49f
12:24 6
mph
1027.6mb 54f 48f
12:18 2 5 mph 1027.6mb 54f 49f
12:12 2 6 mph 1027.6mb 54f 50f
12:06 6 8 mph 1027.6mb 54f 50f
12:00 5 6 mph 1027.6mb 54f 50f
vie 04/17 11:48 5 8 mph 1027.6mb 54f 49f
11:42 1 5 mph 1027.6mb 54f 51f
11:24 3 6 mph 1027.4mb 54f 52f
11:12 1 5 mph 1027.4mb 54f 52f
10:54 2 3 mph 1027.4mb 54f 51f
10:48 3 5 mph 1027.3mb 54f 51f
10:42 2 3 mph 1027.3mb 54f 51f
10:30 1 2 mph 1027.2mb 54f 50f
10:24 1 2 mph 1027.1mb 54f 50f
10:18 1 2 mph 1027mb 54f 50f
10:12 2 3 mph 1027mb 54f 50f
10:06 2 3 mph 1027mb 54f 50f
10:00 2 3 mph 1026.9mb 54f 51f
9:54 2 5 mph 1026.9mb 54f 51f
9:48 2
mph
1026.9mb 54f 51f
9:36 5
mph
1026.7mb 54f 52f
9:30 2 5 mph 1026.6mb 54f 52f
9:24  -  2 mph 1026.5mb 54f 52f
9:18 1 2 mph 1026.6mb 54f 52f
9:12  -  10 mph 1026.5mb 54f 52f
8:54 3 6 mph 1026.4mb 54f 51f
8:48 5 6 mph 1026.3mb 54f 52f
8:42 5 8 mph 1026.3mb 54f 52f
8:36 5 7 mph 1026.2mb 54f 52f
8:30 6 9 mph 1026.1mb 54f 52f
8:24 5 7 mph 1026mb 54f 52f
8:18 6 7 mph 1026mb 54f 52f
8:12 6 8 mph 1025.9mb 54f 53f
8:06 5 10 mph 1025.9mb 54f 53f
8:00 7 10 mph 1026mb 54f 53f
7:54 5 7 mph 1026mb 54f 53f
7:48 5 7 mph 1025.9mb 54f 54f
7:42 6 8 mph 1025.9mb 54f 54f
7:36 2 5 mph 1025.9mb 54f 55f
7:30 2 3 mph 1025.9mb 54f 55f
7:24 3 5 mph 1025.9mb 53f 55f
7:18 6 8 mph 1025.9mb 54f 55f
7:12 7 8 mph 1025.9mb 54f 55f
7:06 6 9 mph 1025.9mb 54f 55f
7:00 8 9 mph 1026mb 53f 54f
6:54 7 8 mph 1026.1mb 53f 55f
6:48 6 8 mph 1026mb 53f 55f
6:42 7 9 mph 1026mb 54f 55f
6:36 6 8 mph 1026mb 54f 55f
6:30 6 9 mph 1025.9mb 53f 55f
6:24 8 9 mph 1025.9mb 53f 55f
6:18 5 9 mph 1025.9mb 53f 55f
6:12 5 8 mph 1025.9mb 53f 55f
6:06 3 7 mph 1025.9mb 53f 55f
6:00 5 9 mph 1026mb 53f 55f
5:54 7 9 mph 1026mb 53f 55f
5:48 10 11 mph 1026.1mb 53f 55f
5:42 9 11 mph 1026.1mb 54f 55f
5:36 7 9 mph 1026mb 53f 55f
5:30 8 13 mph 1026mb 53f 55f
5:24 11 13 mph 1026mb 54f 55f
5:18 10 15 mph 1025.9mb 54f 55f
5:12 13 16 mph 1025.9mb 53f 56f
5:06 13 17 mph 1025.9mb 53f 55f
5:00 14 17 mph 1026mb 53f 56f
4:54 9 13 mph 1026mb 53f 56f
4:48 9 18 mph 1026.1mb 53f 56f
4:42 14 20 mph 1026mb 53f 56f
4:36 8 16 mph 1025.9mb 53f 56f
4:30 13 16 mph 1025.9mb 53f 56f
4:24 14 16 mph 1025.9mb 53f 56f
4:18 17 21 mph 1025.8mb 53f 57f
4:12 7 8 mph 1025.8mb 53f 57f
4:06 7 11 mph 1025.7mb 53f 57f
4:00 11 14 mph 1025.7mb 53f 57f
3:54 10 15 mph 1025.6mb 53f 57f
3:48 13 15 mph 1025.6mb 53f 57f
3:42 13 15 mph 1025.6mb 53f 57f
3:36 11 15 mph 1025.6mb 53f 57f
3:30 11 16 mph 1025.6mb 53f 58f
3:24 11 14 mph 1025.5mb 53f 57f
3:18 9 13 mph 1025.5mb 53f 57f
3:12 5 13 mph 1025.5mb 53f 58f
3:00 3 8 mph 1025.5mb 53f 58f
2:54 7 11 mph 1025.5mb 53f 58f
2:48 5 14 mph 1025.5mb 53f 58f
2:42 5 10 mph 1025.5mb 53f 58f
2:36 5 8 mph 1025.5mb 53f 59f
2:30 2 6 mph 1025.5mb 53f 60f
2:24 2 5 mph 1025.5mb 53f 60f
2:18 3 6 mph - - -
2:12 2 6 mph 1025.5mb 53f 58f
2:06 2 8 mph 1025.4mb 53f 58f
2:00 2 6 mph 1025.4mb 53f 58f
1:54 2 6 mph 1025.3mb 53f 58f
1:36 3 9 mph 1025.5mb 53f 57f
1:30 5 8 mph 1025.4mb 53f 57f
1:24 3 7 mph 1025.3mb 53f 58f
1:18 2 6 mph 1025.4mb 53f 59f
1:12 2 5 mph 1025.4mb 54f 59f
1:06 2 8 mph 1025.4mb 54f 58f
1:00 3 9 mph 1025.4mb 53f 56f
12:54 5 8 mph 1025.4mb 53f 56f
12:48 2 7 mph 1025.4mb 53f 57f
12:42 5 9 mph 1025.5mb 53f 57f
12:36 5 9 mph 1025.5mb 53f 56f
12:30 6 8 mph 1025.5mb 53f 56f
12:24 6 9 mph 1025.5mb 53f 56f
12:18 5 8 mph 1025.5mb 53f 56f
12:12 3 6 mph 1025.5mb 53f 56f
12:06 5 7 mph 1025.5mb 53f 56f
12:00 2 6 mph 1025.6mb 53f 57f
11:54 2 5 mph 1025.6mb 53f 58f
11:48 1 3 mph 1025.6mb 53f 58f
11:42 3 7 mph 1025.5mb 53f 56f
11:36 7 8 mph 1025.5mb 53f 56f
11:30 6 9 mph 1025.4mb 53f 56f
11:24 6 9 mph 1025.3mb 53f 57f
11:18 3 8 mph 1025.3mb 53f 55f
11:12 7 11 mph 1025.2mb 53f 55f
11:06 8 11 mph 1025.2mb 53f 54f
11:00 6 10 mph 1025.3mb 53f 54f
10:54 5 8 mph 1025.2mb 53f 54f
10:48 2 5 mph 1025.1mb 53f 54f
10:42  -  3 mph 1025.1mb 53f 55f
10:36 2 3 mph 1025.1mb 53f 54f
10:30 1 3 mph 1024.9mb 53f 54f
10:24 2 6 mph 1025mb 53f 53f
10:18 2 3 mph 1024.9mb 53f 54f
10:12 2
mph
1024.8mb 53f 53f
10:06 2 5 mph 1024.7mb 53f 54f
10:00 1 2 mph 1024.8mb 53f 55f
9:54 1 3 mph 1024.7mb 53f 54f
9:48 3 6 mph 1024.7mb 53f 53f
9:42 5 6 mph 1024.6mb 53f 53f
9:36 1 3 mph 1024.7mb 53f 55f
9:30  -  2 mph 1024.7mb 53f 54f
9:24 1 3 mph 1024.7mb 53f 53f
9:18 2 3 mph 1024.9mb 53f 53f
9:12 1 2 mph 1024.8mb 53f 53f
9:06  -  5 mph 1024.7mb 53f 53f
9:00 2 6 mph 1024.6mb 53f 52f
8:54 5 7 mph 1024.5mb 53f 51f
8:48 3 7 mph 1024.5mb 53f 51f
8:42 5 6 mph 1024.6mb 53f 51f
8:36 2 6 mph 1024.7mb 53f 51f
8:30 6 7 mph 1024.6mb 53f 50f
8:24 5 6 mph 1024.7mb 53f 50f
8:18 5 6 mph 1024.7mb 53f 50f
8:12 3 6 mph 1024.7mb 53f 50f
8:06 2 3 mph 1024.8mb 53f 50f
8:00 2 3 mph 1024.9mb 53f 50f
7:54 3 8 mph 1024.8mb 53f 50f
7:48 9 14 mph 1024.8mb 53f 50f
7:42 13 16 mph 1024.8mb 53f 51f
7:30 14 20 mph 1024.9mb 53f 51f
7:24 17 21 mph 1024.8mb 53f 51f
7:18 14 17 mph 1024.7mb 53f 51f
7:12 5 9 mph 1024.6mb 53f 50f
7:06 3 6 mph 1024.5mb 53f 49f
7:00 1 3 mph 1024.5mb 53f 47f
6:54 1 3 mph 1024.4mb 53f 47f
6:48 3 5 mph 1024.4mb 53f 46f
6:42 2 6 mph 1024.3mb 53f 47f
6:36 2 7 mph 1024.2mb 53f 47f
6:30 2 5 mph 1024.2mb 53f 47f
6:24 2 3 mph 1024.2mb 53f 47f
6:18 2 3 mph 1024.2mb 53f 47f
6:12 2 6 mph 1024.2mb 53f 47f
6:06 3 5 mph 1024mb 53f 47f
6:00 2 6 mph 1024mb 53f 47f
5:54 5 6 mph 1023.8mb 53f 47f
5:48 3 5 mph 1023.8mb 53f 47f
5:42 2 5 mph 1023.8mb 53f 47f
5:36 2 6 mph 1023.8mb 53f 47f
5:30 5 6 mph 1023.9mb 53f 47f
5:24 3 6 mph 1023.7mb 53f 47f
5:18 1 5 mph 1023.7mb 53f 48f
5:12 5 6 mph 1023.6mb 53f 48f
5:06 5 6 mph 1023.6mb 53f 48f
5:00 3 6 mph 1023.5mb 53f 48f
4:54  -  2 mph 1023.4mb 53f 48f
4:48  -  2 mph 1023.3mb 53f 48f
4:42 2
mph
1023.2mb 53f 48f
4:36  -  2 mph 1023.3mb 53f 48f
4:30 1
mph
1023.2mb 53f 48f
4:24  -  2 mph 1023.2mb 53f 48f
4:18 2 3 mph 1023.2mb 53f 47f
4:12 3 6 mph 1023.2mb 53f 47f
4:06 3 6 mph 1023.1mb 53f 48f
4:00 3 6 mph 1023mb 53f 48f
3:54 5 6 mph 1023mb 53f 48f
3:48 2 5 mph 1023mb 53f 48f
3:42 1 2 mph 1023.1mb 53f 48f
3:36  -  3 mph 1023.1mb 53f 48f
3:30 2 5 mph 1023.1mb 53f 49f
3:24 5 6 mph 1023.1mb 53f 49f
3:18 1 2 mph 1023.1mb 53f 48f
3:12  -  1 mph 1023.1mb 53f 49f
3:06  -  1 mph 1023.1mb 53f 48f
3:00  -  1 mph 1023mb 53f 48f
2:54  -  mph 1023.1mb 53f 48f
2:48 1 2 mph 1023mb 53f 47f
2:42 1
mph
1022.9mb 53f 48f
2:36  -  3 mph 1022.9mb 53f 48f
2:30 5 6 mph 1022.9mb 53f 48f
2:24 5 6 mph 1022.9mb 53f 49f
2:18  -  2 mph 1022.9mb 53f 49f
2:12 1 2 mph 1023mb 53f 50f
2:06  -  2 mph 1023.1mb 53f 50f
2:00 1
mph
1023.1mb 53f 50f
1:54  -  1 mph 1023.2mb 53f 50f
1:48  -  1 mph 1023.3mb 53f 50f
1:42  -  1 mph 1023.3mb 53f 50f
1:36  -  1 mph 1023.4mb 53f 50f
1:30  -  1 mph 1023.4mb 53f 50f
1:24  -  mph 1023.3mb 53f 49f
1:18  -  2 mph 1023.3mb 53f 49f
1:12 1 2 mph 1023.3mb 53f 49f
1:06 1 3 mph 1023.3mb 53f 49f
1:00 2 3 mph 1023.2mb 53f 49f
12:54 1 2 mph 1023.1mb 53f 50f
12:48 2 3 mph 1023.2mb 53f 50f
12:42 3 5 mph 1023.1mb 53f 50f
12:36 3
mph
1023.1mb 53f 50f
12:30 1 2 mph 1023.1mb 53f 50f
12:24 2 6 mph 1023.1mb 53f 50f
12:18 2 5 mph 1023.1mb - 50f
12:12 3 6 mph 1023.1mb - 50f
12:06 5
mph
1023.2mb - 51f
12:00 2 3 mph 1023.2mb 53f 50f
jue 04/16 11:54 2
mph
1023.3mb 53f 51f
11:48 2
mph
1023.2mb 53f 51f
11:30 3 5 mph 1023.1mb 53f 52f
11:24 2
mph
1023.1mb 53f 52f
11:12 3 5 mph 1023.1mb 53f 52f
10:54 3 5 mph 1023mb 53f 53f
10:48 3 5 mph 1023.1mb 53f 53f
10:42 3 8 mph 1023mb 53f 53f
10:36 5 10 mph 1023mb 53f 54f
10:30 5 7 mph 1023mb 53f 54f
10:24 2 7 mph 1023mb 53f 54f
10:18 3 6 mph 1023.1mb 53f 54f
10:12 3 6 mph 1023.1mb 53f 55f
10:06 3 5 mph 1023.1mb 53f 55f
10:00 3 5 mph 1023.1mb 53f 55f
9:54 3 5 mph 1023.1mb 53f 55f
9:48 2 3 mph 1023.1mb 53f 55f
9:42 3 5 mph 1023mb 53f 55f
9:30 6 7 mph - - -
9:24 5 8 mph 1023.1mb 53f 55f
9:18 7 8 mph 1023mb 53f 55f
9:12 3 8 mph 1023mb 53f 55f
9:06 6 8 mph 1022.9mb 53f 55f
9:00 6 9 mph 1022.9mb 53f 55f
8:54 6 8 mph 1022.9mb 53f 55f
8:48 6 7 mph 1022.9mb 53f 55f
8:42 5 7 mph 1022.8mb 53f 55f
8:36 5 7 mph 1022.7mb 53f 55f
8:30 7 8 mph 1022.7mb 53f 55f
8:24 7 8 mph 1022.6mb 53f 55f
8:18 8 10 mph 1022.6mb - -
8:12 7 9 mph 1022.6mb 53f 55f
8:06 6 8 mph 1022.5mb 53f 56f
8:00 6 10 mph 1022.4mb 53f 56f
7:54 8 10 mph 1022.4mb 53f 56f
7:48 8 9 mph 1022.4mb 53f 56f
7:42 8 10 mph 1022.4mb 53f 57f
7:36 8 10 mph 1022.4mb 53f 57f
7:30 7 9 mph 1022.4mb 53f 57f
7:24 7 9 mph 1022.4mb 53f 58f
7:18 6 9 mph - - -
7:12 7 9 mph 1022.5mb 53f 58f
7:06 6 8 mph 1022.5mb 53f 58f
7:00 5 8 mph 1022.6mb 53f 58f
6:54 5 6 mph 1022.6mb 53f 59f
6:48 3 5 mph 1022.6mb 53f 59f
6:42 3 5 mph 1022.6mb 53f 59f
6:36 2 3 mph 1022.6mb 53f 59f
6:30  -  3 mph 1022.7mb 53f 60f
6:24 2 3 mph 1022.7mb 53f 59f
6:18 2 3 mph 1022.7mb 53f 58f
6:12 2 6 mph 1022.8mb 53f 58f
6:06 3
mph
1022.7mb 53f 58f
6:00 2 5 mph 1022.8mb 53f 58f
5:54 2 5 mph 1022.9mb 53f 58f
5:48  -  5 mph 1023mb 53f 60f
5:42 1 5 mph 1023.1mb 53f 59f
5:36 5 6 mph 1023.1mb 53f 58f
5:30 3 5 mph 1023.1mb 53f 59f
5:24 1 5 mph 1023.2mb 52f 61f
5:18 5 6 mph 1023.3mb 52f 60f
5:12 2 5 mph 1023.3mb 53f 60f
5:06 2 3 mph 1023.4mb 53f 60f
5:00 1 3 mph 1023.4mb 52f 60f
4:54 2 6 mph 1023.4mb 52f 59f
4:48 6 8 mph 1023.5mb 52f 59f
4:42 1 3 mph 1023.5mb 52f 60f
4:36  -  2 mph 1023.6mb 52f 60f
4:30 2 6 mph 1023.6mb 52f 57f
4:24 6
mph
1023.7mb 52f 57f
4:18 5 6 mph 1023.8mb 52f 57f
4:12 5 8 mph 1023.9mb 52f 57f
4:06 2 7 mph 1023.9mb 52f 57f
4:00 3 9 mph 1024mb 52f 58f
3:54 3 6 mph 1024.1mb 52f 57f
3:48 1 5 mph 1024.2mb 52f 57f
3:42 5 6 mph 1024.3mb 52f 57f
3:36 5 7 mph 1024.4mb 52f 57f
3:30 2 6 mph 1024.5mb 52f 57f
3:24 3 5 mph 1024.6mb 52f 57f
3:18 3 6 mph 1024.7mb 52f 57f
3:12 3 7 mph 1024.7mb 52f 57f
3:06 3 6 mph 1024.9mb 52f 56f
3:00 2 5 mph 1025mb 52f 56f
2:54 2 5 mph 1025.1mb 52f 57f
2:48 5 6 mph 1025.1mb 52f 56f
2:42  -  2 mph 1025.2mb 52f 58f
2:36  -  2 mph 1025.3mb 52f 58f
2:30 2 3 mph 1025.4mb 52f 58f
2:24 2 3 mph 1025.4mb 52f 58f
2:18 1 2 mph 1025.5mb 52f 59f
2:12  -  1 mph 1025.6mb 52f 59f
2:06 1 3 mph 1025.7mb 52f 57f
2:00 2
mph
1025.7mb 52f 56f
1:54 1 3 mph 1025.7mb 52f 56f
1:48 2
mph
1025.8mb 52f 56f
1:42 2 3 mph 1025.9mb 52f 56f
1:36 1 2 mph 1026.1mb 52f 57f
1:30 2 5 mph 1026.2mb 52f 56f
1:24 2 3 mph 1026.2mb 52f 55f
1:18 2 5 mph 1026.2mb 52f 55f
1:12 5 6 mph 1026.2mb 52f 54f
1:06 3 6 mph 1026.3mb 52f 56f
1:00 6 7 mph 1026.4mb 52f 55f
12:54 3 6 mph 1026.4mb 52f 57f
12:48 5 6 mph 1026.5mb 52f 58f
12:42 5 6 mph 1026.6mb 52f 58f
12:36 6 7 mph 1026.6mb 52f 57f
12:30 5 6 mph 1026.7mb 52f 57f
12:24 2 7 mph 1026.8mb 52f 57f
12:18 5 6 mph 1026.9mb 52f 56f
12:12 5 6 mph 1026.9mb 52f 56f
12:06 5 6 mph 1027mb 52f 56f
12:00 3 7 mph - - -
11:54 3 6 mph 1027.2mb 52f 55f
11:48 1 3 mph 1027.3mb 52f 56f
11:42  -  3 mph 1027.4mb 52f 55f
11:36 1 3 mph 1027.4mb 52f 54f
11:30 2 5 mph 1027.5mb 52f 54f
11:24 2 5 mph 1027.6mb 52f 54f
11:18  -  2 mph 1027.6mb 52f 54f
11:12  -  2 mph 1027.6mb 52f 54f
11:06 1 3 mph 1027.8mb 52f 53f
11:00 3 6 mph 1027.8mb 52f 52f
10:54 2 7 mph 1027.8mb 52f 54f
10:48 3 6 mph 1027.7mb 52f 53f
10:42  -  3 mph 1027.8mb 52f 53f
10:36 2 3 mph 1027.8mb 52f 52f
10:30  -  2 mph 1027.9mb 52f 52f
10:24  -  2 mph 1028mb 52f 50f
10:18  -  mph 1028.1mb 52f 49f
10:12 1 2 mph 1028.2mb 52f 49f
10:06  -  2 mph 1028.2mb 52f 48f
10:00 3
mph
1028.2mb 52f 47f
9:54 3 5 mph 1028.2mb 52f 47f
9:48 2 3 mph 1028.3mb 52f 47f
9:42 1 2 mph 1028.3mb 52f 47f
9:36 1 2 mph 1028.3mb 52f 47f
9:30  -  mph 1028.3mb 52f 47f
9:24  -  mph 1028.3mb 52f 47f
9:18 2 3 mph 1028.3mb 52f 46f
9:12  -  2 mph 1028.3mb 52f 46f
9:06  -  2 mph 1028.4mb 52f 47f
9:00  -  1 mph 1028.4mb 52f 47f
8:54  -  2 mph 1028.4mb 52f 47f
8:48  -  mph 1028.5mb 52f 46f
8:42  -  mph 1028.5mb 52f 46f
8:36  -  mph 1028.6mb 52f 45f
8:30 6 8 mph 1028.6mb 52f 44f
8:24 7 8 mph 1028.6mb 52f 44f
8:18 6 9 mph 1028.6mb 52f 43f
8:12 8 9 mph 1028.7mb 52f 43f
8:06 7 10 mph 1028.7mb 52f 43f
8:00 7 9 mph 1028.7mb 52f 43f
7:54 6 9 mph 1028.7mb 52f 43f
7:48 6 8 mph 1028.7mb 52f 43f
7:42 7 9 mph 1028.7mb 52f 43f
7:36 3 6 mph 1028.8mb 52f 43f
7:30 3 6 mph 1028.9mb 52f 43f
7:24 6 7 mph 1028.9mb 52f 43f
7:18 5 8 mph 1028.8mb 52f 43f
7:12 5 8 mph 1028.8mb 52f 43f
7:06 3 6 mph 1028.9mb 52f 43f
7:00 5 7 mph 1028.8mb 52f 43f
6:54 5 7 mph 1028.9mb 52f 43f
6:48 5 8 mph 1029mb 52f 44f
6:42 5 8 mph 1028.9mb 52f 44f
6:36 5 7 mph 1029mb 52f 44f
6:30 3 7 mph 1029mb 52f 44f
6:24 3 5 mph 1029mb 52f 43f
6:18 3 6 mph 1029mb 52f 43f
6:12 5 7 mph 1029mb 52f 43f
6:06 3 7 mph 1029.1mb 52f 43f
6:00 3 6 mph 1029.1mb 52f 43f
5:54 3 6 mph 1029.1mb 52f 44f
5:48 2 5 mph 1029.1mb 52f 44f
5:42 2 5 mph 1029.1mb 52f 44f
5:36 2 6 mph 1029.2mb 52f 44f
5:30 5 7 mph 1029.1mb 52f 44f
5:24 1 6 mph 1029.1mb 52f 44f
5:18  -  3 mph 1029.2mb 52f 44f
5:12 1 3 mph 1029.2mb 52f 44f
5:06 1 2 mph 1029.3mb 52f 44f
5:00  -  2 mph 1029.3mb 52f 44f
4:54 3 7 mph 1029.3mb 52f 45f
4:48 3 7 mph 1029.3mb 52f 44f
4:42 2
mph
1029.4mb 52f 44f
4:36 1 5 mph 1029.5mb 52f 44f
4:30 2 6 mph 1029.5mb 52f 45f
4:24 2 3 mph 1029.6mb 52f 45f
4:18 2 3 mph 1029.6mb 52f 44f
4:12 1 6 mph 1029.6mb 52f 45f
4:06 2 3 mph 1029.6mb 52f 45f
4:00  -  3 mph 1029.7mb 52f 45f
3:54 2 6 mph 1029.7mb 52f 45f
3:48 5 6 mph 1029.8mb 52f 46f
3:42 6 7 mph 1029.7mb 52f 45f
3:36 6 7 mph 1029.8mb 52f 45f
3:30 3 6 mph 1029.8mb 52f 45f
3:24 2 5 mph 1029.9mb 52f 45f
3:18 3 6 mph 1029.9mb 52f 45f
3:12 5 6 mph 1030mb 52f 45f
3:06 2 6 mph 1030.1mb 52f 45f
3:00 2 3 mph 1030.2mb 52f 45f
2:54 3 5 mph 1030.3mb 52f 45f
2:48 2 5 mph 1030.3mb 52f 45f
2:42 3
mph
1030.4mb 52f 45f
2:36 2 3 mph 1030.5mb 52f 45f
2:30 2 3 mph 1030.6mb 52f 45f
2:24 1 3 mph 1030.6mb 52f 45f
2:18 3 5 mph 1030.7mb 52f 46f
2:12 3 5 mph 1030.7mb 52f 46f
2:06 2 5 mph 1030.9mb 52f 46f
2:00 3 6 mph 1030.9mb 52f 46f
1:54 5 6 mph 1030.9mb 52f 46f
1:48 5 6 mph 1031mb 52f 46f
1:42 2 5 mph 1031mb 52f 46f
1:36 3 6 mph 1031.1mb 52f 46f
1:30 3 5 mph 1031.2mb 52f 46f
1:24 2 6 mph 1031.3mb 52f 46f
1:18 3 6 mph 1031.3mb 52f 46f
1:12 2 3 mph 1031.3mb 52f 47f
1:06 2 3 mph 1031.3mb 52f 46f
1:00 2
mph
1031.4mb 52f 46f
12:54 2 3 mph 1031.4mb 52f 46f
12:48 3
mph
1031.4mb 52f 47f
12:42 2 3 mph 1031.5mb 52f 47f
12:36 2
mph
1031.5mb 52f 47f
12:30  -  mph 1031.6mb 52f -
12:24  -  1 mph 1031.7mb 52f 46f
12:18  -  mph 1031.7mb - -
12:12  -  1 mph 1031.8mb - -